• Join FlightAware (Why Join?)
  • Login
  • US Flag 
02:46AM EDT


 

Airport Tracker/Info


-or-


 

Live Flight TrackerFlight Track Log ✈ AM321 ✈ 23-Jun-2013 ✈ YHSM - YMEN / MEB

Flight Track Log - Related Links

Times and Time Zones

All times are in EDT time to prevent confusion due to time zone crossing. See the AM321 flight status page for this flight to view local times or setup timezone preferences in your user account.

Time Position Orientation Groundspeed Altitude Reporting Facility
EDT Latitude Longitude Course Direction KTS MPH feet Rate Location/Type
09:41AM -36.7251 142.2958 115° Southeast 167 192 5,700  Level Aus ATC (RADAR)
09:42AM -36.7530 142.3690 116° Southeast 177 204 7,700 1,500 Climbing FlightAware
09:42AM -36.7610 142.3920 113° Southeast 171 197 8,500 1,860 Climbing FlightAware
09:43AM -36.7650 142.4010 119° Southeast 169 194 8,800 1,920 Climbing FlightAware
09:43AM -36.7760 142.4280 117° Southeast 168 193 9,800 2,160 Climbing FlightAware
09:44AM -36.7916 142.4650 117° Southeast 173 199 11,400 1,560 Climbing Aus ATC (RADAR)
09:44AM -36.7920 142.4690 117° Southeast 172 198 11,000 900 Descending FlightAware
09:44AM -36.8060 142.5040 117° Southeast 179 206 12,100 2,100 Climbing FlightAware
09:45AM -36.8204 142.5389 117° Southeast 179 206 13,700 1,620 Climbing Aus ATC (RADAR)
09:45AM -36.8210 142.5420 117° Southeast 182 209 13,200 1,440 Descending FlightAware
09:46AM -36.8398 142.5869 117° Southeast 189 217 14,900 1,560 Climbing Aus ATC (RADAR)
09:46AM -36.8400 142.5900 117° Southeast 188 216 14,500 660 Descending FlightAware
09:46AM -36.8520 142.6190 117° Southeast 191 220 15,300 2,160 Climbing FlightAware
09:47AM -36.8642 142.6510 117° Southeast 191 220 16,700 1,560 Climbing Aus ATC (RADAR)
09:47AM -36.8690 142.6630 117° Southeast 192 221 16,500 600 Descending FlightAware
09:48AM -36.8790 142.6880 117° Southeast 192 221 17,100 1,920 Climbing FlightAware
09:48AM -36.8948 142.7265 117° Southeast 198 228 18,500 1,560 Climbing Aus ATC (RADAR)
09:48AM -36.8980 142.7350 117° Southeast 194 223 18,300 840 Descending FlightAware
09:49AM -36.9180 142.7850 117° Southeast 199 229 19,400 1,800 Climbing FlightAware
09:49AM -36.9221 142.7933 117° Southeast 202 232 20,000 1,500 Climbing Aus ATC (RADAR)
09:50AM -36.9320 142.8220 115° Southeast 201 231 20,200 1,260 Climbing FlightAware
09:50AM -36.9469 142.8572 115° Southeast 206 237 21,300 1,200 Climbing Aus ATC (RADAR)
09:50AM -36.9490 142.8660 115° Southeast 205 236 21,000 -420 Descending FlightAware
09:51AM -36.9680 142.9130 117° Southeast 236 272 21,000  Level FlightAware
09:52AM -36.9850 142.9570 116° Southeast 248 285 21,000  Level FlightAware
09:52AM -37.0000 142.9970 115° Southeast 257 296 21,000  Level FlightAware
09:53AM -37.0240 143.0570 117° Southeast 260 299 21,000  Level FlightAware
09:54AM -37.0420 143.1030 117° Southeast 262 302 21,000 780 Level FlightAware
09:54AM -37.0449 143.1078 117° Southeast 258 297 21,500  Climbing Aus ATC (RADAR)
09:54AM -37.0650 143.1620 116° Southeast 262 302 21,000 -360 Descending FlightAware
09:55AM -37.0880 143.2210 116° Southeast 263 303 21,000  Level FlightAware
09:56AM -37.1060 143.2680 116° Southeast 265 305 21,000 720 Level FlightAware
09:56AM -37.1139 143.2855 116° Southeast 261 300 21,500  Climbing Aus ATC (RADAR)
09:56AM -37.1320 143.3360 116° Southeast 264 304 21,000 -360 Descending FlightAware
09:57AM -37.1580 143.4020 116° Southeast 262 302 21,000  Level FlightAware
09:58AM -37.1790 143.4560 116° Southeast 262 302 21,000  Level FlightAware
09:58AM -37.1990 143.5080 116° Southeast 262 302 21,000  Level FlightAware
09:59AM -37.2230 143.5700 116° Southeast 260 299 21,000  Level FlightAware
10:00AM -37.2460 143.6300 116° Southeast 261 300 21,000 600 Level FlightAware
10:00AM -37.2476 143.6337 116° Southeast 257 296 21,500  Climbing Aus ATC (RADAR)
10:01AM -37.2640 143.6780 115° Southeast 264 304 21,000 -900 Descending FlightAware
10:01AM -37.2853 143.7316 115° Southeast 270 311 20,500 -1,500 Descending Aus ATC (RADAR)
10:01AM -37.2890 143.7430 115° Southeast 283 326 19,900 -1,980 Descending FlightAware
10:02AM -37.3130 143.8060 116° Southeast 288 331 18,800 -1,560 Descending FlightAware
10:03AM -37.3390 143.8740 116° Southeast 290 334 17,700 -1,560 Descending FlightAware
10:03AM -37.3620 143.9360 116° Southeast 289 333 16,700 -1,080 Descending FlightAware
10:03AM -37.3664 143.9453 116° Southeast 287 330 16,900 -1,620 Climbing Aus ATC (RADAR)
10:04AM -37.3880 144.0040 116° Southeast 287 330 15,500 -1,920 Descending FlightAware
10:05AM -37.4060 144.0500 116° Southeast 280 322 14,700 -1,500 Descending FlightAware
10:05AM -37.4280 144.1080 116° Southeast 274 315 13,800 -840 Descending FlightAware
10:05AM -37.4315 144.1176 116° Southeast 275 316 14,100 -1,500 Climbing Aus ATC (RADAR)
10:06AM -37.4470 144.1590 115° Southeast 275 316 12,900 -1,860 Descending FlightAware
10:06AM -37.4660 144.2090 116° Southeast 272 313 12,100 -1,320 Descending FlightAware
10:07AM -37.4900 144.2730 115° Southeast 272 313 11,200 -960 Descending FlightAware
10:08AM -37.5067 144.3183 115° Southeast 265 305 10,900 -1,380 Descending Aus ATC (RADAR)
10:08AM -37.5110 144.3310 115° Southeast 270 311 10,300 -2,100 Descending FlightAware
10:08AM -37.5270 144.3730 116° Southeast 270 311 9,500 -1,440 Descending FlightAware
10:09AM -37.5410 144.4090 116° Southeast 269 310 9,000 -1,320 Descending FlightAware
10:09AM -37.5540 144.4450 114° Southeast 270 311 8,400 -1,440 Descending FlightAware
10:10AM -37.5700 144.4870 116° Southeast 266 306 7,700 -1,440 Descending FlightAware
10:10AM -37.5850 144.5280 115° Southeast 255 293 7,000 -1,500 Descending FlightAware
10:10AM -37.5900 144.5420 114° Southeast 254 292 6,700 -780 Descending FlightAware
10:11AM -37.6059 144.5842 114° Southeast 251 289 6,500 -1,200 Descending Aus ATC (RADAR)
10:11AM -37.6050 144.5820 114° Southeast 253 291 6,100 -2,520 Descending FlightAware
10:11AM -37.6120 144.6020 114° Southeast 254 292 5,800 -1,500 Descending FlightAware
10:12AM -37.6260 144.6390 116° Southeast 257 296 5,100 -1,500 Descending FlightAware
10:12AM -37.6380 144.6700 116° Southeast 257 296 4,600 -1,260 Descending FlightAware
10:13AM -37.6710 144.7200 130° Southeast 251 289 3,700 -1,380 Descending FlightAware
10:13AM -37.6920 144.7530 129° Southeast 240 276 3,000 -1,380 Descending FlightAware
10:14AM -37.7070 144.7770 128° Southeast 235 270 2,500 -1,200 Descending FlightAware
10:14AM -37.7240 144.8080 125° Southeast 230 265 2,000 -1,080 Descending FlightAware
10:14AM -37.7370 144.8340 122° Southeast 196 226 1,600 -600 Descending FlightAware
10:15AM -37.7420 144.8440 122° Southeast 181 208 1,600 -660 Level FlightAware
10:15AM -37.7530 144.8670 122° Southeast 146 168 1,200 -420 Descending FlightAware
10:15AM -37.7554 144.8749 122° Southeast 151 174 1,400 -1,140 Climbing Aus ATC (RADAR)
10:15AM -37.7550 144.8790 102° East 123 142 900 -1,800 Descending FlightAware
10:16AM -37.7550 144.8970 90° East 112 129 300 -960 Descending FlightAware
10:16AM -37.7490 144.9020 33° Northeast 102 117 200 -420 Descending FlightAware
10:16AM -37.7360 144.9010 357° North 99 114 -480 Descending FlightAware